Fargo, ND (58102)

1:13 PM CDT on April 25, 2018 (GMT -0500)
Northport | | Change Station
Active Advisory: Flood Warning

Elev 899 ft 46.91 °N, 96.79 °W | Updated 10 seconds ago

Clear
Clear
62.8 °F
Feels Like 62.8 °F
N
4.0
Wind Variable Wind from SSW
Gusts 4.0 mph

Today
High -- | Low -- °F
--% Chance of Precip.
Yesterday
High -- | Low -- °F
Precip. -- in
Pressure 30.11 in
Visibility 10.0 miles
Clouds Clear
Dew Point 35 °F
Humidity 36%
Rainfall 0.00 in
Snow Depth Not available.
6:21 AM 8:29 PM
Waxing Gibbous, 80% visible
METAR KFAR 251753Z 21016KT 10SM CLR 16/00 A3009 RMK AO2 SLP195 T01610000 10161 21006 58037
Pressure 30.11 in
Visibility 10.0 miles
Clouds Clear
Dew Point 35 °F
Humidity 36%
Rainfall 0.00 in
Snow Depth Not available.
6:21 AM 8:29 PM
Waxing Gibbous, 80% visible
METAR KFAR 251753Z 21016KT 10SM CLR 16/00 A3009 RMK AO2 SLP195 T01610000 10161 21006 58037

Get Your Daily Forecast Email!

Thanks for signing up!

Be on the lookout for a verification email in your inbox.

You'll start receiving severe weather alerts in your inbox..

×

10-Day Weather Forecast

Almanac

Astronomy

Apr. 25, 2018 Rise Set
Actual Time
Civil Twilight
Nautical Twilight
Astronomical Twilight
Moon
Length of Visible Light
Length of Day
Tomorrow will be .
, % of the Moon is Illuminated

Today's Extremes

State Highs State Lows

Community

WunderPhotos

Category 6

Welcome to Category 6. This is the collective home for Weather Underground's featured writeups by Dr. Jeff Masters (right), Bob Henson (left), Chris Burt, and other regular contributors.

Nearby

Air Quality

  Air Quality AQ Index Pollutant
Not available.

Snow Depth

Station Depth Elevation

Earthquake Activity

City Distance Mag. Time & Date
Minimum magnitude displayed is 2.5.

Coastal Water Temperatures

Place Temperature

Stations

Nearby Weather Stations

Station Location Temp. Windchill Dew Point Humidity Wind Precip. Elev Updated Type
                   

Watches & Warnings

Flood Warning
Issued: 10:59 AM CDT Apr. 25, 2018 – National Weather Service

The Flood Warning continues for...
* ... Enderlin... on the Maple River.
* Until Friday morning... or until the warning is cancelled.
* At 9:00 am Wednesday the stage was 10.1 feet.
* Minor flooding is occurring and during the next 7 days... minor
flooding is forecast.
* Minor flood stage is 9.5 feet.
* Forecast... the river will continue to fall to below flood stage by
Thursday morning.
* Impact statement(s) - at 9.5 feet, Flood Warning stage... minor.
Observer's farm near gage begins to flood.


Daily 7am CDT/6am CST forecast stage in feet:

date Thu Fri Sat sun Mon Tue Wed
(month/day) 04/26 04/27 04/28 04/29 04/30 05/01 05/02

Maple River
Enderlin 9.4 8.5 7.7 7.1 6.7 6.4 6.1


Lat... Lon 4669 9768 4679 9732 4670 9722 4658 9760